Time;durP1;ratioP1;P1;durP2;ratioP2;P2;SDS_P1;SDS_P2;PMS_P1;PMS_P2;Temp;Humidity;BMP_temperature;BMP_pressure;BME280_temperature;BME280_humidity;BME280_pressure;Samples;Min_cycle;Max_cycle;Signal;HPM_P1;HPM_P2
2023/05/11 00:01:32;;;;;;;2.43;1.87;;;14.70;99.90;;;;;;5021763;28;20258;-67
2023/05/11 00:03:58;;;;;;;5.30;1.90;;;14.70;99.90;;;;;;5022459;28;20267;-67
2023/05/11 00:06:24;;;;;;;1.97;1.60;;;14.60;99.90;;;;;;5023503;28;21039;-67
2023/05/11 00:08:49;;;;;;;4.77;1.90;;;14.60;99.90;;;;;;5026482;28;20262;-68
2023/05/11 00:11:15;;;;;;;4.00;1.77;;;14.60;99.90;;;;;;5023714;28;20177;-65
2023/05/11 00:13:41;;;;;;;3.67;1.83;;;14.70;99.90;;;;;;5015475;28;20219;-66
2023/05/11 00:16:06;;;;;;;4.50;2.10;;;14.70;99.90;;;;;;5020822;28;21020;-66
2023/05/11 00:18:32;;;;;;;2.37;1.90;;;14.60;99.90;;;;;;5027368;28;20234;-66
2023/05/11 00:20:57;;;;;;;3.17;1.70;;;14.60;99.90;;;;;;5021034;28;20286;-66
2023/05/11 00:23:23;;;;;;;2.00;1.50;;;14.50;99.90;;;;;;5022243;28;20283;-66
2023/05/11 00:25:48;;;;;;;2.40;1.80;;;14.50;99.90;;;;;;5024586;28;20669;-66
2023/05/11 00:28:14;;;;;;;3.00;1.80;;;14.50;99.90;;;;;;5022207;28;20678;-66
2023/05/11 00:30:40;;;;;;;3.17;1.60;;;14.50;99.90;;;;;;5019709;28;20189;-66
2023/05/11 00:33:06;;;;;;;3.20;1.80;;;14.50;99.90;;;;;;5018001;28;21758;-66
2023/05/11 00:35:31;;;;;;;2.50;1.90;;;14.50;99.90;;;;;;5022815;28;20217;-67
2023/05/11 00:37:58;;;;;;;2.70;1.80;;;14.40;99.90;;;;;;5018216;28;20474;-67
2023/05/11 00:40:24;;;;;;;3.00;1.90;;;14.40;99.90;;;;;;5012076;28;20201;-66
2023/05/11 00:42:49;;;;;;;5.20;2.13;;;14.40;99.90;;;;;;5012596;28;20991;-67
2023/05/11 00:45:15;;;;;;;2.73;1.87;;;14.40;99.90;;;;;;5017488;28;20470;-67
2023/05/11 00:47:41;;;;;;;2.67;1.90;;;14.30;99.90;;;;;;5016323;28;20619;-66
2023/05/11 00:50:08;;;;;;;2.53;2.13;;;14.30;99.90;;;;;;5017999;28;20220;-67
2023/05/11 00:52:33;;;;;;;2.37;1.67;;;14.30;99.90;;;;;;5016289;28;20515;-67
2023/05/11 00:54:59;;;;;;;2.83;1.97;;;14.30;99.90;;;;;;5018756;28;20974;-66
2023/05/11 00:57:25;;;;;;;2.70;1.80;;;14.30;99.90;;;;;;5014941;28;20287;-66
2023/05/11 00:59:51;;;;;;;2.73;1.80;;;14.30;99.90;;;;;;5019601;28;20204;-66
2023/05/11 01:02:17;;;;;;;3.50;1.80;;;14.30;99.90;;;;;;5015944;28;20451;-66
2023/05/11 01:04:43;;;;;;;3.17;1.77;;;14.30;99.90;;;;;;5023680;28;20253;-66
2023/05/11 01:07:20;;;;;;;3.23;1.87;;;14.30;99.90;;;;;;5021601;28;20503;-66
2023/05/11 01:10:08;;;;;;;6.23;1.87;;;14.30;99.90;;;;;;5023842;28;20802;-66
2023/05/11 01:12:42;;;;;;;3.27;2.10;;;14.30;99.90;;;;;;5021375;28;20494;-66
2023/05/11 01:15:12;;;;;;;5.20;1.90;;;14.30;99.90;;;;;;5017900;28;20449;-66
2023/05/11 01:18:26;;;;;;;2.23;2.00;;;14.40;99.90;;;;;;5020738;28;20427;-66
2023/05/11 01:20:57;;;;;;;2.53;1.70;;;14.30;99.90;;;;;;5030762;28;20481;-66
2023/05/11 01:23:28;;;;;;;2.77;1.83;;;14.20;99.90;;;;;;5011319;28;20524;-66
2023/05/11 01:26:13;;;;;;;2.40;1.80;;;14.20;99.90;;;;;;5020203;28;20430;-66
2023/05/11 01:29:02;;;;;;;2.30;1.90;;;14.20;99.90;;;;;;5017883;28;20547;-66
2023/05/11 01:31:30;;;;;;;3.70;1.90;;;14.30;99.90;;;;;;5013534;28;20443;-66
2023/05/11 01:34:11;;;;;;;2.40;1.90;;;14.20;99.90;;;;;;5048908;28;20453;-67
2023/05/11 01:36:43;;;;;;;3.30;1.80;;;14.20;99.90;;;;;;5021531;28;20451;-66
2023/05/11 01:39:11;;;;;;;2.53;1.70;;;14.20;99.90;;;;;;5018277;28;20836;-66
2023/05/11 01:41:39;;;;;;;2.73;1.77;;;14.20;99.90;;;;;;5020124;28;20475;-66
2023/05/11 01:44:08;;;;;;;2.57;1.87;;;14.30;99.90;;;;;;5017791;28;20857;-66
2023/05/11 01:46:34;;;;;;;3.50;2.47;;;14.40;99.90;;;;;;5017225;28;20777;-67
2023/05/11 01:49:04;;;;;;;2.40;1.80;;;14.40;99.90;;;;;;5021253;28;20533;-68
2023/05/11 01:51:34;;;;;;;2.50;1.90;;;14.30;99.90;;;;;;5017413;28;20563;-67
2023/05/11 01:54:01;;;;;;;4.37;1.77;;;14.10;99.90;;;;;;5023023;28;20940;-67
2023/05/11 01:56:27;;;;;;;4.30;2.00;;;14.10;99.90;;;;;;5016468;28;20439;-67
2023/05/11 01:58:55;;;;;;;2.40;1.93;;;14.10;99.90;;;;;;5016713;28;20463;-66
2023/05/11 02:01:23;;;;;;;2.47;1.77;;;14.10;99.90;;;;;;5018328;28;20467;-66
2023/05/11 02:03:50;;;;;;;2.50;1.80;;;14.10;99.90;;;;;;5012572;28;20432;-66
2023/05/11 02:06:17;;;;;;;2.97;1.83;;;14.20;99.90;;;;;;5013614;28;21320;-66
2023/05/11 02:08:44;;;;;;;2.40;1.90;;;14.20;99.90;;;;;;5017540;28;20568;-66
2023/05/11 02:11:12;;;;;;;2.80;2.00;;;14.10;99.90;;;;;;5017611;28;20522;-66
2023/05/11 02:13:39;;;;;;;2.43;2.00;;;14.10;99.90;;;;;;5022368;28;20431;-67
2023/05/11 02:16:07;;;;;;;4.40;2.30;;;14.20;99.90;;;;;;5016201;28;20444;-66
2023/05/11 02:18:33;;;;;;;2.27;1.90;;;14.10;99.90;;;;;;5017083;28;20461;-66
2023/05/11 02:21:00;;;;;;;2.43;2.10;;;14.10;99.90;;;;;;5010949;28;20464;-66
2023/05/11 02:23:26;;;;;;;2.07;1.87;;;14.10;99.90;;;;;;5015963;28;20426;-66
2023/05/11 02:25:53;;;;;;;3.10;1.87;;;14.10;99.90;;;;;;5016168;28;20431;-67
2023/05/11 02:28:19;;;;;;;3.07;1.60;;;14.10;99.90;;;;;;5020911;28;20439;-67
2023/05/11 02:30:47;;;;;;;3.00;1.80;;;14.10;99.90;;;;;;5019436;28;20448;-67
2023/05/11 02:33:30;;;;;;;3.47;2.00;;;14.00;99.90;;;;;;5022588;28;20561;-68
2023/05/11 02:35:58;;;;;;;2.43;1.83;;;13.90;99.90;;;;;;5013639;28;20539;-68
2023/05/11 02:38:31;;;;;;;4.20;2.20;;;13.90;99.90;;;;;;5014095;28;20533;-68
2023/05/11 02:40:58;;;;;;;2.20;1.63;;;14.00;99.90;;;;;;5019064;28;20460;-67
2023/05/11 02:43:28;;;;;;;2.77;2.00;;;13.90;99.90;;;;;;5027750;28;20422;-68
2023/05/11 02:46:01;;;;;;;3.00;1.90;;;14.00;99.90;;;;;;5018492;28;20427;-68
2023/05/11 02:48:29;;;;;;;2.63;2.10;;;14.00;99.90;;;;;;5020155;28;20522;-67
2023/05/11 02:50:57;;;;;;;2.27;1.97;;;14.00;99.90;;;;;;5016144;28;20542;-67
2023/05/11 02:53:26;;;;;;;3.07;1.87;;;13.90;99.90;;;;;;5013843;28;20447;-67
2023/05/11 02:55:53;;;;;;;3.90;2.00;;;14.00;99.90;;;;;;5023376;28;20439;-67
2023/05/11 02:58:19;;;;;;;2.47;2.00;;;14.00;99.90;;;;;;5016229;28;20592;-67
2023/05/11 03:00:45;;;;;;;2.73;2.00;;;13.90;99.90;;;;;;5009391;28;20819;-67
2023/05/11 03:03:11;;;;;;;4.37;2.50;;;14.00;99.90;;;;;;5013163;28;21389;-68
2023/05/11 03:05:37;;;;;;;5.10;2.27;;;14.00;99.90;;;;;;5020370;28;20224;-67
2023/05/11 03:08:02;;;;;;;2.83;2.20;;;14.00;99.90;;;;;;5023999;28;20446;-68
2023/05/11 03:10:28;;;;;;;3.10;1.70;;;13.90;99.90;;;;;;5017736;28;20245;-67
2023/05/11 03:12:55;;;;;;;4.07;2.20;;;14.00;99.90;;;;;;5019845;28;20242;-67
2023/05/11 03:15:21;;;;;;;4.60;2.00;;;13.90;99.90;;;;;;5019384;28;20625;-67
2023/05/11 03:17:49;;;;;;;4.63;1.90;;;13.80;99.90;;;;;;5040504;28;20512;-67
2023/05/11 03:20:16;;;;;;;3.00;1.93;;;13.80;99.90;;;;;;5017794;28;20819;-67
2023/05/11 03:22:44;;;;;;;2.17;1.80;;;13.80;99.90;;;;;;5021186;28;20462;-67
2023/05/11 03:25:10;;;;;;;4.90;2.40;;;13.80;99.90;;;;;;5024526;28;20435;-68
2023/05/11 03:27:37;;;;;;;7.53;1.97;;;13.80;99.90;;;;;;5014796;28;20431;-68
2023/05/11 03:30:06;;;;;;;8.27;2.07;;;13.80;99.90;;;;;;5021117;28;20928;-67
2023/05/11 03:32:32;;;;;;;4.40;2.37;;;13.80;99.90;;;;;;5022582;28;20485;-68
2023/05/11 03:34:58;;;;;;;2.80;2.00;;;13.80;99.90;;;;;;5022945;28;20473;-68
2023/05/11 03:37:24;;;;;;;2.73;2.00;;;13.80;99.90;;;;;;5022192;28;20461;-68
2023/05/11 03:39:55;;;;;;;3.23;2.13;;;13.80;99.90;;;;;;5024008;28;20209;-67
2023/05/11 03:42:21;;;;;;;4.63;2.30;;;13.60;99.90;;;;;;5021688;28;20427;-68
2023/05/11 03:44:49;;;;;;;5.23;2.40;;;13.70;99.90;;;;;;5022620;28;20935;-67
2023/05/11 03:47:17;;;;;;;5.27;2.30;;;13.70;99.90;;;;;;5019952;28;20514;-67
2023/05/11 03:49:44;;;;;;;5.53;2.50;;;13.70;99.90;;;;;;5023491;28;20595;-67
2023/05/11 03:52:10;;;;;;;3.87;2.10;;;13.80;99.90;;;;;;5016479;28;20532;-67
2023/05/11 03:54:36;;;;;;;2.67;2.20;;;13.70;99.90;;;;;;5016040;28;20451;-67
2023/05/11 03:57:01;;;;;;;3.10;2.20;;;13.70;99.90;;;;;;5021066;28;20436;-67
2023/05/11 03:59:27;;;;;;;3.33;2.30;;;13.70;99.90;;;;;;5017498;28;20453;-67
2023/05/11 04:01:53;;;;;;;2.23;1.97;;;13.70;99.90;;;;;;5016457;28;20674;-67
2023/05/11 04:04:20;;;;;;;2.80;2.10;;;13.70;99.90;;;;;;5021956;28;20528;-67
2023/05/11 04:06:45;;;;;;;3.07;2.10;;;13.60;99.90;;;;;;5021763;28;20439;-68
2023/05/11 04:09:11;;;;;;;3.40;2.27;;;13.60;99.90;;;;;;5023953;28;20533;-68
2023/05/11 04:11:37;;;;;;;2.80;2.10;;;13.60;99.90;;;;;;5029005;28;20241;-67
2023/05/11 04:14:03;;;;;;;3.30;2.43;;;13.60;99.90;;;;;;5026497;28;20201;-67
2023/05/11 04:16:28;;;;;;;2.60;2.30;;;13.60;99.90;;;;;;5024297;28;20450;-67
2023/05/11 04:18:54;;;;;;;2.73;2.20;;;13.60;99.90;;;;;;5024760;28;20216;-67
2023/05/11 04:21:20;;;;;;;2.70;2.20;;;13.50;99.90;;;;;;5021186;28;20316;-67
2023/05/11 04:23:45;;;;;;;5.50;2.40;;;13.60;99.90;;;;;;5021877;28;20271;-67
2023/05/11 04:26:11;;;;;;;5.07;3.20;;;13.50;99.90;;;;;;5031223;28;20215;-67
2023/05/11 04:28:36;;;;;;;3.53;2.13;;;13.50;99.90;;;;;;5024342;28;20198;-67
2023/05/11 04:31:02;;;;;;;3.20;2.77;;;13.60;99.90;;;;;;5022774;28;20192;-67
2023/05/11 04:33:28;;;;;;;3.70;2.83;;;13.60;99.90;;;;;;5033485;28;20203;-67
2023/05/11 04:35:53;;;;;;;4.60;3.03;;;13.60;99.90;;;;;;5021826;28;20191;-67
2023/05/11 04:38:20;;;;;;;6.07;3.20;;;13.60;99.90;;;;;;5022673;28;20292;-67
2023/05/11 04:40:46;;;;;;;4.40;3.50;;;13.60;99.90;;;;;;5023733;28;20208;-67
2023/05/11 04:43:13;;;;;;;2.83;2.53;;;13.50;99.90;;;;;;5023171;28;20847;-67
2023/05/11 04:45:39;;;;;;;4.27;2.77;;;13.50;99.90;;;;;;5019633;28;20457;-67
2023/05/11 04:48:05;;;;;;;3.90;3.30;;;13.60;99.90;;;;;;5018979;28;20463;-67
2023/05/11 04:50:31;;;;;;;4.20;3.10;;;13.60;99.90;;;;;;5018485;28;20185;-67
2023/05/11 04:52:57;;;;;;;3.50;3.17;;;13.50;99.90;;;;;;5015555;28;20856;-67
2023/05/11 04:55:22;;;;;;;4.60;2.70;;;13.60;99.90;;;;;;5025550;28;20443;-67
2023/05/11 04:57:48;;;;;;;3.43;2.80;;;13.70;99.90;;;;;;5020274;28;20188;-67
2023/05/11 05:00:14;;;;;;;3.63;2.90;;;13.60;99.90;;;;;;5018565;28;20287;-67
2023/05/11 05:02:39;;;;;;;3.90;3.00;;;13.60;99.90;;;;;;5018394;28;21255;-67
2023/05/11 05:05:05;;;;;;;3.90;3.40;;;13.50;99.90;;;;;;5014927;28;20431;-67
2023/05/11 05:07:31;;;;;;;5.90;3.20;;;13.50;99.90;;;;;;5022276;28;20184;-67
2023/05/11 05:09:57;;;;;;;4.33;3.37;;;13.40;99.90;;;;;;5022757;28;20531;-67
2023/05/11 05:12:22;;;;;;;8.07;3.73;;;13.50;99.90;;;;;;5014562;28;20218;-67
2023/05/11 05:14:48;;;;;;;3.60;3.10;;;13.60;99.90;;;;;;5015219;28;20185;-67
2023/05/11 05:17:13;;;;;;;3.73;3.17;;;13.60;99.90;;;;;;5017311;28;20654;-67
2023/05/11 05:19:39;;;;;;;4.47;3.70;;;13.60;99.90;;;;;;5013583;28;20936;-67
2023/05/11 05:22:04;;;;;;;5.83;3.80;;;13.50;99.90;;;;;;5018213;28;20338;-67
2023/05/11 05:24:30;;;;;;;6.50;3.90;;;13.60;99.90;;;;;;5020142;28;20264;-67
2023/05/11 05:26:55;;;;;;;6.30;3.70;;;13.70;99.90;;;;;;5018171;28;20193;-67
2023/05/11 05:29:21;;;;;;;5.47;4.00;;;13.70;99.90;;;;;;5014645;28;20262;-67
2023/05/11 05:31:46;;;;;;;5.77;3.83;;;13.70;99.90;;;;;;5019215;28;20695;-67
2023/05/11 05:34:12;;;;;;;5.93;3.60;;;13.80;99.90;;;;;;5020893;28;20697;-67
2023/05/11 05:36:38;;;;;;;5.73;3.37;;;13.70;99.90;;;;;;5017090;28;20920;-68
2023/05/11 05:39:08;;;;;;;5.63;3.77;;;13.80;99.90;;;;;;5023184;28;20235;-68
2023/05/11 05:41:35;;;;;;;8.80;4.07;;;13.80;99.90;;;;;;5015741;28;20220;-68
2023/05/11 05:44:00;;;;;;;4.03;3.40;;;13.80;99.90;;;;;;5019892;28;20441;-68
2023/05/11 05:46:26;;;;;;;8.00;3.80;;;13.90;99.90;;;;;;5018467;28;20533;-67
2023/05/11 05:48:51;;;;;;;6.20;3.50;;;13.90;99.90;;;;;;5021111;28;20228;-68
2023/05/11 05:51:17;;;;;;;4.30;3.57;;;14.00;99.90;;;;;;5016538;28;20218;-67
2023/05/11 05:53:42;;;;;;;3.73;3.30;;;13.90;99.90;;;;;;5018254;28;20192;-68
2023/05/11 05:56:09;;;;;;;5.17;3.83;;;14.00;99.90;;;;;;5015043;28;20181;-67
2023/05/11 05:58:34;;;;;;;7.03;3.67;;;14.00;99.90;;;;;;5016295;28;20208;-67
2023/05/11 06:01:00;;;;;;;3.87;3.30;;;14.00;99.90;;;;;;5016310;28;20490;-67
2023/05/11 06:03:26;;;;;;;5.30;3.13;;;13.90;99.90;;;;;;5017118;28;20227;-68
2023/05/11 06:05:51;;;;;;;6.43;3.70;;;13.80;99.90;;;;;;5023373;28;20263;-67
2023/05/11 06:08:17;;;;;;;4.53;3.17;;;13.80;99.90;;;;;;5018748;28;20200;-68
2023/05/11 06:10:42;;;;;;;5.07;3.40;;;13.90;99.90;;;;;;5021257;28;20192;-68
2023/05/11 06:13:08;;;;;;;4.03;3.13;;;14.00;99.90;;;;;;5021131;28;20189;-68
2023/05/11 06:15:34;;;;;;;4.10;3.40;;;14.10;99.90;;;;;;5021883;28;20249;-67
2023/05/11 06:17:59;;;;;;;4.77;3.50;;;14.20;99.90;;;;;;5022396;28;20208;-67
2023/05/11 06:20:25;;;;;;;5.10;3.80;;;14.20;99.90;;;;;;5015561;28;20212;-68
2023/05/11 06:22:50;;;;;;;3.20;2.90;;;14.20;99.90;;;;;;5013081;28;20185;-67
2023/05/11 06:25:16;;;;;;;4.70;3.47;;;14.30;99.90;;;;;;5009098;28;20275;-67
2023/05/11 06:27:42;;;;;;;4.17;3.77;;;14.30;99.90;;;;;;5012444;28;20199;-67
2023/05/11 06:30:08;;;;;;;5.20;3.80;;;14.20;99.90;;;;;;5019009;28;20183;-67
2023/05/11 06:32:33;;;;;;;3.77;3.37;;;14.10;99.90;;;;;;5022008;28;20280;-66
2023/05/11 06:34:59;;;;;;;4.67;3.63;;;14.20;99.90;;;;;;5011440;28;20605;-67
2023/05/11 06:37:27;;;;;;;6.27;4.13;;;14.30;99.90;;;;;;5018585;28;20192;-67
2023/05/11 06:39:53;;;;;;;4.90;3.40;;;14.20;99.90;;;;;;5022217;28;20262;-66
2023/05/11 06:42:18;;;;;;;5.70;3.80;;;14.30;99.90;;;;;;5019451;28;20439;-66
2023/05/11 06:44:44;;;;;;;5.20;3.60;;;14.30;99.90;;;;;;5020803;28;20499;-66
2023/05/11 06:47:10;;;;;;;3.97;3.57;;;14.40;99.90;;;;;;5018921;28;20629;-66
2023/05/11 06:49:36;;;;;;;4.83;3.57;;;14.40;99.90;;;;;;5025925;28;20542;-66
2023/05/11 06:52:01;;;;;;;4.20;3.80;;;14.40;99.90;;;;;;5019881;28;20582;-66
2023/05/11 06:54:27;;;;;;;4.43;3.87;;;14.50;99.90;;;;;;5019216;28;20192;-67
2023/05/11 06:56:53;;;;;;;5.87;3.30;;;14.40;99.90;;;;;;5016510;28;20261;-68
2023/05/11 06:59:18;;;;;;;4.27;3.87;;;14.50;99.90;;;;;;5019043;28;20224;-68
2023/05/11 07:01:44;;;;;;;4.23;3.80;;;14.60;99.90;;;;;;5020827;28;20265;-68
2023/05/11 07:04:09;;;;;;;8.03;4.67;;;14.60;99.90;;;;;;5019441;28;20196;-68
2023/05/11 07:06:35;;;;;;;4.90;3.70;;;14.60;99.90;;;;;;5018818;28;20553;-67
2023/05/11 07:09:02;;;;;;;5.17;3.33;;;14.60;99.90;;;;;;5048340;28;20347;-67
2023/05/11 07:11:29;;;;;;;5.93;3.90;;;14.70;99.90;;;;;;5018446;28;20263;-69
2023/05/11 07:13:54;;;;;;;8.27;4.70;;;14.70;99.90;;;;;;5021357;28;20539;-67
2023/05/11 07:16:20;;;;;;;4.73;3.63;;;14.70;99.90;;;;;;5021560;28;20577;-67
2023/05/11 07:18:46;;;;;;;5.10;4.50;;;14.80;99.90;;;;;;5022224;28;20997;-67
2023/05/11 07:21:11;;;;;;;4.50;3.70;;;14.90;99.90;;;;;;5016347;28;20211;-68
2023/05/11 07:23:37;;;;;;;5.53;4.70;;;15.00;99.90;;;;;;5025765;28;20262;-68
2023/05/11 07:26:07;;;;;;;4.53;4.00;;;15.10;99.90;;;;;;5022481;28;20188;-68
2023/05/11 07:28:36;;;;;;;4.53;4.13;;;15.00;99.90;;;;;;5028113;28;20200;-67
2023/05/11 07:31:02;;;;;;;4.97;3.80;;;15.10;99.90;;;;;;5026840;28;20586;-67
2023/05/11 07:33:28;;;;;;;4.90;4.20;;;15.10;99.90;;;;;;5015185;28;20534;-67
2023/05/11 07:35:53;;;;;;;4.90;3.60;;;15.00;99.90;;;;;;5016808;28;20188;-68
2023/05/11 07:38:19;;;;;;;7.50;5.53;;;15.00;99.90;;;;;;5017352;28;20227;-67
2023/05/11 07:40:45;;;;;;;7.73;4.17;;;15.10;99.90;;;;;;5014598;28;20212;-67
2023/05/11 07:43:11;;;;;;;7.13;4.97;;;15.10;99.90;;;;;;5020171;28;21370;-68
2023/05/11 07:45:37;;;;;;;4.90;4.07;;;15.00;99.90;;;;;;5013404;28;20435;-68
2023/05/11 07:48:03;;;;;;;6.17;4.60;;;15.00;99.90;;;;;;5024638;28;20447;-68
2023/05/11 07:50:28;;;;;;;5.03;4.53;;;15.10;99.90;;;;;;5014687;28;20462;-67
2023/05/11 07:52:54;;;;;;;7.17;4.77;;;15.00;99.90;;;;;;5017283;28;20177;-66
2023/05/11 07:55:23;;;;;;;5.60;4.53;;;15.00;99.90;;;;;;5017137;28;20195;-67
2023/05/11 07:57:50;;;;;;;7.23;4.27;;;14.90;99.90;;;;;;5019690;28;20184;-67
2023/05/11 08:00:16;;;;;;;4.90;4.30;;;14.80;99.90;;;;;;5024349;28;20504;-67
2023/05/11 08:02:42;;;;;;;6.10;4.10;;;14.70;99.90;;;;;;5016950;28;20492;-67
2023/05/11 08:05:08;;;;;;;3.93;3.60;;;14.80;99.90;;;;;;5021245;28;20985;-67
2023/05/11 08:07:33;;;;;;;4.77;3.97;;;14.80;99.90;;;;;;5021023;28;20227;-67
2023/05/11 08:09:59;;;;;;;5.53;4.37;;;15.00;99.90;;;;;;5023338;28;20443;-68
2023/05/11 08:12:24;;;;;;;5.30;4.60;;;15.00;99.90;;;;;;5021494;28;20552;-67
2023/05/11 08:14:50;;;;;;;5.33;4.50;;;15.00;99.90;;;;;;5018193;28;20192;-67
2023/05/11 08:17:15;;;;;;;5.27;4.77;;;15.00;99.90;;;;;;5014809;28;20279;-67
2023/05/11 08:19:41;;;;;;;7.23;4.77;;;15.00;99.90;;;;;;5045738;28;20283;-67
2023/05/11 08:22:07;;;;;;;7.33;5.83;;;14.90;99.90;;;;;;5014008;28;20213;-68
2023/05/11 08:24:32;;;;;;;5.33;4.57;;;15.10;99.90;;;;;;5011907;28;20220;-68
2023/05/11 08:26:58;;;;;;;4.97;4.47;;;15.10;99.90;;;;;;5012700;28;20204;-68
2023/05/11 08:29:26;;;;;;;5.20;4.70;;;15.00;99.90;;;;;;5020602;28;20204;-68
2023/05/11 08:31:52;;;;;;;9.30;5.50;;;15.00;99.90;;;;;;5011599;28;20539;-67
2023/05/11 08:34:17;;;;;;;5.77;5.20;;;15.20;99.90;;;;;;5018916;28;20443;-68
2023/05/11 08:36:43;;;;;;;5.90;5.30;;;15.20;99.90;;;;;;5010884;28;20509;-67
2023/05/11 08:39:09;;;;;;;5.23;4.73;;;15.20;99.90;;;;;;5014620;28;20665;-67
2023/05/11 08:41:35;;;;;;;6.90;4.70;;;15.30;99.90;;;;;;5013517;28;20472;-67
2023/05/11 08:44:01;;;;;;;5.53;5.03;;;15.30;99.90;;;;;;5014250;28;20188;-67
2023/05/11 08:46:33;;;;;;;6.00;5.40;;;15.30;99.90;;;;;;5014998;28;20199;-67
2023/05/11 08:48:58;;;;;;;5.37;4.87;;;15.20;99.90;;;;;;5013303;28;20455;-67
2023/05/11 08:51:25;;;;;;;6.13;4.77;;;15.20;99.90;;;;;;5015940;28;20461;-65
2023/05/11 08:53:52;;;;;;;6.10;5.00;;;15.20;99.90;;;;;;5018192;28;20189;-66
2023/05/11 08:56:20;;;;;;;5.87;5.27;;;15.10;99.90;;;;;;5025086;28;20436;-67
2023/05/11 08:58:46;;;;;;;5.47;4.73;;;15.10;99.90;;;;;;5021126;28;20465;-67
2023/05/11 09:01:13;;;;;;;7.17;4.50;;;15.20;99.90;;;;;;5020932;28;20768;-67
2023/05/11 09:03:40;;;;;;;5.63;4.83;;;15.30;99.90;;;;;;5019298;28;20431;-68
2023/05/11 09:06:06;;;;;;;6.70;4.53;;;15.20;99.90;;;;;;5023613;28;20447;-68
2023/05/11 09:08:35;;;;;;;5.87;5.10;;;15.30;99.90;;;;;;5019230;28;20459;-67
2023/05/11 09:11:01;;;;;;;5.80;4.60;;;15.30;99.90;;;;;;5020804;28;20502;-68
2023/05/11 09:13:28;;;;;;;5.47;4.40;;;15.40;99.90;;;;;;5024271;28;20478;-68
2023/05/11 09:15:54;;;;;;;4.90;3.87;;;15.40;99.90;;;;;;5019467;28;21211;-68
2023/05/11 09:18:19;;;;;;;6.43;5.03;;;15.50;99.90;;;;;;5018484;28;20459;-68
2023/05/11 09:20:46;;;;;;;6.50;4.87;;;15.50;99.90;;;;;;5014114;28;20230;-68
2023/05/11 09:23:16;;;;;;;4.97;4.47;;;15.50;99.90;;;;;;5018750;28;20189;-68
2023/05/11 09:25:42;;;;;;;9.20;5.40;;;15.60;99.90;;;;;;5020316;28;20485;-68
2023/05/11 09:28:12;;;;;;;5.20;4.70;;;15.80;99.90;;;;;;5023524;28;20432;-68
2023/05/11 09:30:37;;;;;;;5.13;4.63;;;15.60;99.90;;;;;;5017041;28;20435;-68
2023/05/11 09:33:03;;;;;;;4.97;4.47;;;15.60;99.90;;;;;;5024527;28;20901;-68
2023/05/11 09:35:32;;;;;;;5.53;4.90;;;15.80;99.90;;;;;;5021166;28;20188;-68
2023/05/11 09:38:11;;;;;;;5.10;4.60;;;15.90;99.90;;;;;;5015784;28;20208;-68
2023/05/11 09:40:48;;;;;;;6.90;5.00;;;15.90;99.90;;;;;;5017780;28;20486;-67
2023/05/11 09:43:15;;;;;;;5.20;4.70;;;16.00;99.90;;;;;;5022923;28;21914;-67
2023/05/11 09:45:45;;;;;;;5.63;5.03;;;16.10;99.90;;;;;;5020672;28;20453;-67
2023/05/11 09:48:20;;;;;;;8.13;5.23;;;16.20;99.90;;;;;;5045335;28;20446;-67
2023/05/11 09:50:50;;;;;;;5.73;5.10;;;16.20;99.90;;;;;;5018665;28;21227;-67
2023/05/11 09:53:16;;;;;;;5.77;4.57;;;16.40;99.90;;;;;;5025881;28;20457;-67
2023/05/11 09:55:54;;;;;;;5.27;4.53;;;16.40;99.90;;;;;;5013970;28;20487;-67
2023/05/11 09:58:20;;;;;;;5.13;4.57;;;16.40;99.90;;;;;;5015190;28;20493;-68
2023/05/11 10:00:54;;;;;;;5.50;4.60;;;16.60;99.90;;;;;;5017313;28;20466;-68
2023/05/11 10:03:20;;;;;;;6.63;4.90;;;16.60;99.90;;;;;;5014658;28;20180;-67
2023/05/11 10:05:59;;;;;;;6.63;4.63;;;16.70;99.90;;;;;;5021849;28;20976;-67
2023/05/11 10:08:30;;;;;;;5.83;5.23;;;16.80;99.90;;;;;;5019551;28;20224;-67
2023/05/11 10:10:56;;;;;;;10.90;5.53;;;16.90;99.90;;;;;;5019964;28;20423;-67
2023/05/11 10:13:22;;;;;;;7.03;5.30;;;16.90;99.90;;;;;;5020878;28;20995;-67
2023/05/11 10:15:51;;;;;;;6.07;4.87;;;17.00;99.90;;;;;;5018057;28;20439;-67
2023/05/11 10:18:17;;;;;;;6.97;5.10;;;17.10;99.90;;;;;;5020923;28;20470;-67
2023/05/11 10:20:43;;;;;;;5.93;4.60;;;17.00;99.90;;;;;;5020807;28;20506;-67
2023/05/11 10:23:10;;;;;;;4.87;4.47;;;17.10;99.90;;;;;;5029616;28;20179;-68
2023/05/11 10:25:37;;;;;;;5.27;4.77;;;17.10;99.90;;;;;;5022754;28;20423;-68
2023/05/11 10:28:03;;;;;;;5.40;4.60;;;17.10;99.90;;;;;;5020474;28;20461;-72
2023/05/11 10:30:30;;;;;;;5.83;5.00;;;17.20;99.90;;;;;;5016849;28;20505;-67
2023/05/11 10:32:56;;;;;;;5.13;4.50;;;17.40;99.90;;;;;;5022982;28;20855;-68
2023/05/11 10:35:22;;;;;;;9.60;5.37;;;17.40;99.90;;;;;;5023017;28;20431;-67
2023/05/11 10:37:50;;;;;;;5.70;5.10;;;17.20;99.90;;;;;;5019017;28;20578;-67
2023/05/11 10:40:15;;;;;;;4.97;4.57;;;17.20;99.90;;;;;;5017306;28;20491;-67
2023/05/11 10:42:41;;;;;;;6.03;4.67;;;17.40;99.90;;;;;;5017655;28;20470;-67
2023/05/11 10:45:35;;;;;;;5.43;4.93;;;17.60;99.90;;;;;;5018863;28;20173;-67
2023/05/11 10:48:23;;;;;;;7.07;4.70;;;17.50;99.90;;;;;;4999658;28;20306;-67
2023/05/11 10:51:13;;;;;;;5.60;4.77;;;17.40;99.90;;;;;;5015737;28;20435;-67
2023/05/11 10:53:58;;;;;;;6.63;4.47;;;17.70;99.90;;;;;;5018223;28;20945;-67
2023/05/11 10:56:36;;;;;;;9.20;4.23;;;17.90;99.90;;;;;;5011161;28;20438;-67
2023/05/11 10:59:25;;;;;;;7.20;4.40;;;18.10;99.90;;;;;;5016331;28;20455;-67
2023/05/11 11:01:53;;;;;;;4.33;3.93;;;18.40;99.90;;;;;;5019670;28;20467;-67
2023/05/11 11:04:19;;;;;;;4.87;4.37;;;18.30;99.90;;;;;;5023519;28;20801;-67
2023/05/11 11:06:45;;;;;;;5.53;4.90;;;18.30;99.90;;;;;;5018008;28;20440;-67
2023/05/11 11:09:14;;;;;;;5.37;4.37;;;18.20;99.90;;;;;;5020494;28;20463;-68
2023/05/11 11:11:44;;;;;;;6.13;4.50;;;18.20;99.90;;;;;;5016775;28;20184;-68
2023/05/11 11:14:11;;;;;;;4.30;3.90;;;18.20;99.90;;;;;;5017893;28;20453;-67
2023/05/11 11:16:37;;;;;;;4.83;4.30;;;18.10;99.90;;;;;;5020871;28;20443;-67
2023/05/11 11:19:28;;;;;;;5.87;5.20;;;18.10;99.90;;;;;;5021949;28;21214;-69
2023/05/11 11:21:58;;;;;;;5.53;4.10;;;18.10;99.90;;;;;;5021225;28;20990;-68
2023/05/11 11:24:35;;;;;;;5.47;4.97;;;18.10;99.90;;;;;;5020562;28;20507;-68
2023/05/11 11:27:01;;;;;;;4.97;4.47;;;18.40;99.90;;;;;;5015944;28;20441;-67
2023/05/11 11:29:28;;;;;;;4.83;4.33;;;18.40;99.90;;;;;;5022115;28;20820;-67
2023/05/11 11:31:54;;;;;;;5.50;5.00;;;18.50;99.90;;;;;;5022049;28;20443;-67
2023/05/11 11:34:28;;;;;;;4.70;4.20;;;18.60;99.90;;;;;;5027489;28;21075;-68
2023/05/11 11:36:54;;;;;;;5.63;4.70;;;18.60;99.90;;;;;;5024114;28;20227;-68
2023/05/11 11:39:21;;;;;;;5.30;4.20;;;18.70;99.90;;;;;;5021799;28;20467;-68
2023/05/11 11:42:08;;;;;;;4.60;4.20;;;18.70;99.90;;;;;;5020101;28;20271;-68
2023/05/11 11:44:34;;;;;;;6.07;4.10;;;18.80;99.90;;;;;;5021946;28;20959;-68
2023/05/11 11:47:16;;;;;;;12.93;5.03;;;19.00;99.90;;;;;;5017477;28;20792;-68
2023/05/11 11:49:52;;;;;;;5.63;5.13;;;18.80;99.90;;;;;;5021775;28;20544;-67
2023/05/11 11:52:29;;;;;;;6.87;4.97;;;18.80;99.90;;;;;;5024931;28;20911;-67
2023/05/11 11:54:58;;;;;;;6.83;4.60;;;18.90;99.90;;;;;;5020457;28;20446;-67
2023/05/11 11:57:33;;;;;;;6.07;5.47;;;18.80;99.90;;;;;;5022216;28;20438;-67
2023/05/11 12:00:06;;;;;;;5.17;4.63;;;18.50;99.90;;;;;;5018066;28;20504;-67
2023/05/11 12:02:32;;;;;;;5.20;4.70;;;18.60;99.90;;;;;;5015541;28;20420;-67
2023/05/11 12:05:07;;;;;;;5.10;4.57;;;18.70;99.90;;;;;;5018067;28;20423;-67
2023/05/11 12:07:34;;;;;;;4.50;4.10;;;18.80;99.90;;;;;;5019058;28;20435;-67
2023/05/11 12:10:03;;;;;;;5.93;4.67;;;18.80;99.90;;;;;;5026780;28;20509;-67
2023/05/11 12:12:29;;;;;;;4.70;4.23;;;18.90;99.90;;;;;;5014188;28;20515;-67
2023/05/11 12:14:56;;;;;;;7.33;5.77;;;18.80;99.90;;;;;;5016577;28;20929;-67
2023/05/11 12:17:24;;;;;;;4.87;4.47;;;18.90;99.90;;;;;;5015855;28;20441;-67
2023/05/11 12:19:50;;;;;;;5.70;4.80;;;19.00;99.90;;;;;;5021160;28;20467;-67
2023/05/11 12:22:22;;;;;;;6.17;5.07;;;19.20;99.90;;;;;;5017811;28;21259;-67
2023/05/11 12:24:47;;;;;;;7.10;4.90;;;19.30;99.90;;;;;;5020413;28;20184;-67
2023/05/11 12:27:17;;;;;;;4.97;4.53;;;19.50;99.90;;;;;;5023735;28;20412;-67
2023/05/11 12:29:50;;;;;;;5.80;4.40;;;19.90;99.90;;;;;;5026717;28;20201;-67
2023/05/11 12:32:28;;;;;;;4.73;4.33;;;20.20;99.90;;;;;;5026449;28;20944;-67
2023/05/11 12:35:01;;;;;;;4.93;4.30;;;20.50;99.90;;;;;;5027555;28;20909;-67
2023/05/11 12:37:30;;;;;;;5.43;4.77;;;20.60;99.90;;;;;;5024562;28;20445;-67
2023/05/11 12:39:57;;;;;;;8.07;5.07;;;20.70;99.90;;;;;;5017687;28;20524;-66
2023/05/11 12:42:23;;;;;;;4.90;4.40;;;20.70;99.90;;;;;;5023713;28;20945;-66
2023/05/11 12:44:50;;;;;;;5.40;4.90;;;20.80;99.90;;;;;;5023123;28;20411;-66
2023/05/11 12:47:16;;;;;;;5.70;5.10;;;20.90;99.90;;;;;;5032071;28;20267;-66
2023/05/11 12:49:42;;;;;;;5.80;5.23;;;20.70;99.90;;;;;;5016460;28;20510;-66
2023/05/11 12:52:09;;;;;;;5.40;4.70;;;20.40;99.90;;;;;;5020333;28;20444;-66